Time;durP1;ratioP1;P1;durP2;ratioP2;P2;SDS_P1;SDS_P2;PMS_P1;PMS_P2;Temp;Humidity;BMP_temperature;BMP_pressure;BME280_temperature;BME280_humidity;BME280_pressure;Samples;Min_cycle;Max_cycle;Signal;HPM_P1;HPM_P2
2021/12/16 00:01:48;;;;;;;66.68;37.08;;;;;;;7.97;100.00;103252.59;5256746;28;20458;-65
2021/12/16 00:05:07;;;;;;;68.68;38.45;;;;;;;7.96;100.00;103250.84;5261530;28;20067;-65
2021/12/16 00:29:55;;;;;;;69.45;38.28;;;;;;;7.94;100.00;103250.03;5265737;28;20081;-65
2021/12/16 00:32:31;;;;;;;62.58;35.92;;;;;;;7.92;100.00;103262.50;5265360;28;20051;-65
2021/12/16 00:35:05;;;;;;;70.22;38.65;;;;;;;7.99;100.00;103252.53;5259789;28;20039;-65
2021/12/16 00:37:36;;;;;;;71.38;38.42;;;;;;;7.97;100.00;103255.25;5263260;28;20037;-65
2021/12/16 00:40:11;;;;;;;69.97;40.38;;;;;;;7.91;100.00;103258.06;5258510;28;20033;-65
2021/12/16 00:42:50;;;;;;;68.05;37.40;;;;;;;8.00;100.00;103257.81;5264259;28;20107;-65
2021/12/16 00:48:02;;;;;;;66.82;38.35;;;;;;;7.91;100.00;103262.53;5265591;28;20039;-65
2021/12/16 00:56:00;;;;;;;61.08;35.88;;;;;;;7.99;100.00;103261.38;5253850;28;20067;-65
2021/12/16 00:58:42;;;;;;;62.85;36.97;;;;;;;7.91;100.00;103265.19;5257993;28;20056;-65
2021/12/16 01:35:43;;;;;;;67.20;39.00;;;;;;;7.99;100.00;103274.69;5266287;28;20449;-65
2021/12/16 01:47:00;;;;;;;66.50;38.30;;;;;;;7.94;100.00;103289.91;5257117;28;20425;-65
2021/12/16 01:49:47;;;;;;;65.53;37.88;;;;;;;7.99;100.00;103289.75;5262169;28;20032;-65
2021/12/16 01:55:24;;;;;;;61.92;36.85;;;;;;;7.99;100.00;103295.94;5261388;28;20036;-65
2021/12/16 01:58:00;;;;;;;64.07;38.25;;;;;;;7.95;100.00;103293.41;5256483;28;20594;-65
2021/12/16 02:00:58;;;;;;;61.00;34.90;;;;;;;7.99;100.00;103297.75;5262605;28;20037;-65
2021/12/16 02:03:41;;;;;;;64.43;37.45;;;;;;;7.98;100.00;103296.88;5256139;28;20444;-65
2021/12/16 02:08:53;;;;;;;64.15;36.20;;;;;;;7.93;100.00;103301.44;5255646;28;20036;-65
2021/12/16 02:36:29;;;;;;;61.28;37.97;;;;;;;7.94;100.00;103311.16;5262545;28;20394;-65
2021/12/16 02:39:06;;;;;;;62.67;36.35;;;;;;;7.96;100.00;103319.97;5251902;28;20490;-65
2021/12/16 02:41:41;;;;;;;58.88;35.38;;;;;;;7.95;100.00;103318.22;5261198;28;20024;-65
2021/12/16 02:44:20;;;;;;;;;;;;;;;8.07;100.00;103317.00;5266640;28;20029;-65
2021/12/16 02:49:51;;;;;;;63.58;36.63;;;;;;;7.99;100.00;103319.00;5263808;28;20036;-64
2021/12/16 02:52:24;;;;;;;57.90;36.05;;;;;;;7.93;100.00;103320.03;5264068;28;20021;-64
2021/12/16 02:54:56;;;;;;;66.85;37.05;;;;;;;7.94;100.00;103320.91;5269743;28;20074;-64
2021/12/16 02:57:28;;;;;;;58.88;34.78;;;;;;;7.92;100.00;103320.97;5263436;28;20138;-64
2021/12/16 02:59:59;;;;;;;63.47;36.35;;;;;;;7.90;100.00;103317.47;5266714;28;20016;-64
2021/12/16 03:02:31;;;;;;;60.97;35.22;;;;;;;7.93;100.00;103322.69;5269687;28;20562;-64
2021/12/16 03:05:02;;;;;;;57.28;35.67;;;;;;;7.93;100.00;103319.16;5270397;28;20474;-64
2021/12/16 03:07:34;;;;;;;59.83;35.38;;;;;;;7.92;100.00;103306.78;5267637;28;20040;-64
2021/12/16 03:12:54;;;;;;;61.13;35.40;;;;;;;7.95;100.00;103318.22;5271841;28;20382;-64
2021/12/16 03:15:41;;;;;;;63.83;36.50;;;;;;;7.96;100.00;103316.44;5270351;28;21205;-64
2021/12/16 03:21:09;;;;;;;62.58;36.00;;;;;;;7.90;100.00;103316.59;5268576;28;20032;-64
2021/12/16 03:24:00;;;;;;;55.58;33.63;;;;;;;7.90;100.00;103312.16;5264878;28;20033;-64
2021/12/16 03:37:18;;;;;;;57.03;35.10;;;;;;;7.97;100.00;103319.03;5267968;28;20037;-64
2021/12/16 03:39:54;;;;;;;;;;;;;;;8.06;100.00;103320.59;5258157;28;20051;-64
2021/12/16 03:42:30;;;;;;;62.33;35.38;;;;;;;7.94;100.00;103320.91;5268124;28;19921;-64
2021/12/16 03:48:36;;;;;;;60.58;35.08;;;;;;;7.94;100.00;103324.47;5259446;28;20111;-64
2021/12/16 03:51:13;;;;;;;52.42;32.42;;;;;;;7.87;100.00;103327.31;5266086;28;20036;-64
2021/12/16 03:53:49;;;;;;;66.85;37.33;;;;;;;7.90;100.00;103328.13;5255796;28;20047;-64
2021/12/16 03:56:23;;;;;;;61.38;35.05;;;;;;;7.89;100.00;103336.97;5267887;28;20036;-64
2021/12/16 03:58:54;;;;;;;58.08;35.85;;;;;;;7.90;100.00;103341.41;5252190;28;20455;-64
2021/12/16 04:01:29;;;;;;;58.45;34.47;;;;;;;7.94;100.00;103343.06;5255320;28;20039;-64
2021/12/16 04:04:00;;;;;;;59.92;35.58;;;;;;;7.87;100.00;103341.47;5256730;28;20371;-64
2021/12/16 04:06:34;;;;;;;60.60;36.08;;;;;;;7.88;100.00;103342.31;5258140;28;20047;-64
2021/12/16 04:09:09;;;;;;;59.53;35.55;;;;;;;7.90;100.00;103338.75;5260523;28;20036;-64
2021/12/16 04:11:44;;;;;;;;;;;;;;;8.00;100.00;103342.03;5254956;28;20052;-64
2021/12/16 04:14:17;;;;;;;59.38;33.83;;;;;;;7.93;100.00;103338.66;5266303;28;20256;-64
2021/12/16 04:16:51;;;;;;;57.75;34.67;;;;;;;7.87;100.00;103338.81;5256511;28;20487;-64
2021/12/16 04:19:26;;;;;;;58.17;35.08;;;;;;;7.87;100.00;103348.56;5262009;28;20097;-64
2021/12/16 04:22:05;;;;;;;60.22;34.42;;;;;;;7.85;100.00;103344.16;5254239;28;20139;-64
2021/12/16 04:24:38;;;;;;;57.50;35.17;;;;;;;7.83;100.00;103335.34;5266039;28;20119;-64
2021/12/16 04:27:09;;;;;;;54.15;32.10;;;;;;;7.90;100.00;103341.41;5263568;28;20067;-64
2021/12/16 04:29:41;;;;;;;62.70;36.05;;;;;;;7.83;100.00;103345.97;5266528;28;20458;-65
2021/12/16 04:32:13;;;;;;;66.53;36.97;;;;;;;7.83;100.00;103339.78;5260701;28;20043;-64
2021/12/16 04:34:44;;;;;;;62.38;35.70;;;;;;;7.78;100.00;103341.69;5273935;28;20032;-64
2021/12/16 04:37:15;;;;;;;50.63;30.92;;;;;;;7.86;100.00;103334.38;5271805;28;20478;-64
2021/12/16 04:39:47;;;;;;;57.75;33.92;;;;;;;7.80;100.00;103337.19;5261007;28;20039;-64
2021/12/16 04:42:23;;;;;;;56.30;33.25;;;;;;;7.86;100.00;103337.03;5260085;28;20029;-64
2021/12/16 04:44:54;;;;;;;54.20;33.22;;;;;;;7.73;100.00;103331.19;5257270;28;20115;-64
2021/12/16 04:47:29;;;;;;;52.17;31.70;;;;;;;7.75;100.00;103328.50;5257064;28;20043;-64
2021/12/16 04:50:00;;;;;;;57.22;34.20;;;;;;;7.65;100.00;103325.16;5258627;28;20032;-64
2021/12/16 04:52:32;;;;;;;55.50;33.95;;;;;;;7.62;100.00;103336.75;5262625;28;20052;-64
2021/12/16 04:55:07;;;;;;;58.85;34.80;;;;;;;7.57;100.00;103340.41;5273598;28;20024;-64
2021/12/16 04:57:39;;;;;;;48.72;30.70;;;;;;;7.51;100.00;103333.47;5259979;28;20021;-64
2021/12/16 05:00:14;;;;;;;55.85;32.22;;;;;;;7.43;100.00;103333.66;5270838;28;21501;-64
2021/12/16 05:02:46;;;;;;;55.28;33.15;;;;;;;7.41;100.00;103330.16;5257061;28;20017;-64
2021/12/16 05:05:18;;;;;;;57.30;34.38;;;;;;;7.42;100.00;103334.56;5268608;28;20036;-64
2021/12/16 05:07:49;;;;;;;53.78;30.85;;;;;;;7.38;100.00;103330.25;5258364;28;20074;-64
2021/12/16 05:10:21;;;;;;;60.95;34.40;;;;;;;7.32;100.00;103335.66;5268443;28;20028;-64
2021/12/16 05:12:56;;;;;;;55.45;31.67;;;;;;;7.20;100.00;103328.84;5254896;28;20056;-64
2021/12/16 05:15:32;;;;;;;62.80;33.85;;;;;;;7.12;100.00;103336.13;5257723;28;20153;-64
2021/12/16 05:18:07;;;;;;;61.80;35.17;;;;;;;7.11;100.00;103341.47;5256256;28;20436;-64
2021/12/16 05:20:43;;;;;;;58.05;34.70;;;;;;;7.09;100.00;103337.97;5263877;28;20016;-64
2021/12/16 05:28:53;;;;;;;50.90;32.17;;;;;;;6.97;100.00;103344.41;5258869;28;20569;-65
2021/12/16 05:31:27;;;;;;;50.03;31.20;;;;;;;6.87;100.00;103351.69;5263060;28;20032;-65
2021/12/16 05:34:00;;;;;;;48.80;30.58;;;;;;;6.82;100.00;103346.47;5255296;28;20032;-65
2021/12/16 05:36:31;;;;;;;51.47;31.13;;;;;;;6.77;100.00;103352.78;5253866;28;20102;-65
2021/12/16 05:39:04;;;;;;;50.50;30.70;;;;;;;6.74;100.00;103352.84;5256837;28;20166;-65
2021/12/16 05:41:35;;;;;;;52.45;31.10;;;;;;;6.67;100.00;103352.97;5257179;28;20078;-65
2021/12/16 05:44:07;;;;;;;53.05;31.02;;;;;;;6.57;100.00;103355.84;5254842;28;20029;-65
2021/12/16 05:46:39;;;;;;;47.55;30.42;;;;;;;6.52;100.00;103355.03;5253623;28;20627;-65
2021/12/16 05:49:13;;;;;;;54.00;33.05;;;;;;;6.40;100.00;103362.31;5257737;28;20037;-64
2021/12/16 05:51:48;;;;;;;49.03;29.25;;;;;;;6.37;100.00;103373.00;5254946;28;20032;-64
2021/12/16 05:54:21;;;;;;;50.00;30.25;;;;;;;6.33;100.00;103365.09;5258787;28;20032;-65
2021/12/16 05:56:52;;;;;;;58.55;34.03;;;;;;;6.23;100.00;103377.66;5267666;28;20119;-65
2021/12/16 05:59:24;;;;;;;50.33;31.17;;;;;;;6.23;100.00;103377.66;5265604;28;20286;-64
2021/12/16 06:01:55;;;;;;;44.45;27.35;;;;;;;6.15;100.00;103385.75;5265829;28;20057;-65
2021/12/16 06:04:27;;;;;;;55.80;32.95;;;;;;;6.05;100.00;103376.22;5271663;28;20021;-65
2021/12/16 06:06:58;;;;;;;52.03;30.20;;;;;;;6.04;100.00;103388.59;5269619;28;20051;-65
2021/12/16 06:09:29;;;;;;;60.05;33.75;;;;;;;5.96;100.00;103393.13;5264819;28;20112;-65
2021/12/16 06:12:02;;;;;;;53.88;31.48;;;;;;;5.93;100.00;103397.59;5265381;28;20553;-65
2021/12/16 06:26:26;;;;;;;50.15;29.38;;;;;;;5.74;100.00;103399.63;5267381;28;20037;-65
2021/12/16 06:28:38;;;;;;;45.58;28.50;;;;;;;5.68;100.00;103400.59;5266308;28;20032;-65
2021/12/16 06:31:09;;;;;;;48.30;29.33;;;;;;;5.63;100.00;103400.66;5267209;28;20834;-65
2021/12/16 06:33:41;;;;;;;47.58;28.88;;;;;;;5.67;100.00;103410.31;5263042;28;20513;-65
2021/12/16 06:36:12;;;;;;;46.25;29.50;;;;;;;5.73;100.00;103409.34;5262266;28;20676;-65
2021/12/16 06:38:43;;;;;;;57.17;31.65;;;;;;;5.60;100.00;103407.75;5260558;28;20033;-65
2021/12/16 06:41:17;;;;;;;52.58;30.80;;;;;;;5.50;100.00;103409.66;5260345;28;20513;-65
2021/12/16 06:43:52;;;;;;;49.50;29.02;;;;;;;5.47;100.00;103410.59;5263099;28;20499;-65
2021/12/16 06:46:31;;;;;;;52.22;31.83;;;;;;;5.39;100.00;103412.47;5263864;28;20036;-65
2021/12/16 06:49:04;;;;;;;51.75;29.67;;;;;;;5.38;100.00;103410.72;5273584;28;20071;-65
2021/12/16 06:51:56;;;;;;;49.30;29.75;;;;;;;5.39;100.00;103407.19;5267584;28;20036;-65
2021/12/16 06:54:40;;;;;;;51.20;30.38;;;;;;;5.33;100.00;103411.66;5271155;28;20473;-64
2021/12/16 06:59:53;;;;;;;53.15;31.85;;;;;;;5.29;100.00;103418.78;5270689;28;20036;-65
2021/12/16 07:05:18;;;;;;;54.88;31.52;;;;;;;5.11;100.00;103422.53;5262635;28;20037;-65
2021/12/16 07:07:50;;;;;;;53.35;31.23;;;;;;;5.11;100.00;103414.59;5261787;28;20098;-65
2021/12/16 07:10:22;;;;;;;51.20;31.65;;;;;;;5.03;100.00;103417.34;5267649;28;20033;-65
2021/12/16 07:12:56;;;;;;;55.13;31.55;;;;;;;5.04;100.00;103432.34;5264140;28;20034;-65
2021/12/16 07:15:29;;;;;;;55.23;31.77;;;;;;;4.98;100.00;103435.03;5265472;28;20065;-65
2021/12/16 07:18:00;;;;;;;56.20;31.60;;;;;;;4.90;100.00;103432.47;5264484;28;20305;-65
2021/12/16 07:20:35;;;;;;;57.58;32.05;;;;;;;4.89;100.00;103449.25;5262785;28;20060;-65
2021/12/16 07:23:08;;;;;;;60.03;31.98;;;;;;;4.87;100.00;103455.41;5268036;28;20394;-65
2021/12/16 07:25:40;;;;;;;58.23;31.40;;;;;;;4.87;100.00;103451.03;5260979;28;20572;-65
2021/12/16 07:28:12;;;;;;;56.70;32.40;;;;;;;4.82;100.00;103455.47;5263866;28;20290;-65
2021/12/16 07:30:45;;;;;;;59.83;33.70;;;;;;;4.68;100.00;103462.69;5268728;28;20582;-65
2021/12/16 07:33:17;;;;;;;51.22;31.15;;;;;;;4.74;100.00;103465.28;5271121;28;20029;-65
2021/12/16 07:35:50;;;;;;;59.03;32.15;;;;;;;4.67;100.00;103471.50;5265674;28;20024;-65
2021/12/16 07:38:22;;;;;;;53.15;31.05;;;;;;;4.72;100.00;103477.63;5271830;28;20040;-65
2021/12/16 07:40:56;;;;;;;53.20;33.15;;;;;;;4.64;100.00;103480.34;5271144;28;20044;-65
2021/12/16 07:43:57;;;;;;;61.70;34.88;;;;;;;4.68;100.00;103479.44;5266377;28;20058;-65
2021/12/16 07:46:29;;;;;;;67.07;35.08;;;;;;;4.63;100.00;103475.06;5263370;28;20036;-65
2021/12/16 07:49:01;;;;;;;73.18;36.92;;;;;;;4.65;100.00;103483.88;5270224;28;20195;-65
2021/12/16 07:51:32;;;;;;;74.82;39.13;;;;;;;4.51;100.00;103490.16;5268160;28;20119;-65
2021/12/16 07:54:05;;;;;;;72.88;38.47;;;;;;;4.59;100.00;103502.44;5266500;28;20478;-65
2021/12/16 07:56:36;;;;;;;69.97;38.35;;;;;;;4.52;100.00;103506.88;5270411;28;20035;-65
2021/12/16 07:59:09;;;;;;;68.50;37.83;;;;;;;4.62;100.00;103511.22;5268295;28;20029;-65
2021/12/16 08:01:42;;;;;;;70.25;37.97;;;;;;;4.54;100.00;103520.09;5272137;28;20449;-65
2021/12/16 08:04:20;;;;;;;74.70;40.15;;;;;;;4.53;100.00;103518.34;5269419;28;20025;-65
2021/12/16 08:06:54;;;;;;;64.28;36.17;;;;;;;4.48;100.00;103526.31;5270555;28;20052;-65
2021/12/16 08:09:25;;;;;;;74.63;37.78;;;;;;;4.44;100.00;103521.94;5272308;28;20039;-65
2021/12/16 08:11:57;;;;;;;63.65;36.25;;;;;;;4.50;100.00;103529.81;5271711;28;20029;-65
2021/12/16 08:14:29;;;;;;;68.93;37.80;;;;;;;4.53;100.00;103529.81;5267008;28;20035;-65
2021/12/16 08:17:00;;;;;;;70.10;37.42;;;;;;;4.46;100.00;103534.25;5272167;28;20032;-65
2021/12/16 08:19:31;;;;;;;79.25;40.30;;;;;;;4.58;100.00;103535.91;5268428;28;20435;-65
2021/12/16 08:22:04;;;;;;;80.18;40.28;;;;;;;4.54;100.00;103535.97;5271024;28;20039;-65
2021/12/16 08:24:35;;;;;;;73.78;38.28;;;;;;;4.49;100.00;103546.56;5271720;28;20472;-65
2021/12/16 08:27:08;;;;;;;71.28;37.47;;;;;;;4.51;100.00;103553.59;5267978;28;20327;-65
2021/12/16 08:29:42;;;;;;;76.72;39.45;;;;;;;4.46;100.00;103547.47;5270803;28;20032;-65
2021/12/16 08:32:13;;;;;;;78.03;37.80;;;;;;;4.50;100.00;103556.25;5266179;28;20497;-65
2021/12/16 08:34:46;;;;;;;76.03;39.75;;;;;;;4.43;100.00;103555.44;5268699;28;20075;-65
2021/12/16 08:37:17;;;;;;;76.00;40.13;;;;;;;4.40;100.00;103559.84;5267374;28;20032;-65
2021/12/16 08:39:49;;;;;;;78.40;39.22;;;;;;;4.49;100.00;103557.16;5269771;28;20035;-65
2021/12/16 08:42:20;;;;;;;78.38;39.97;;;;;;;4.47;100.00;103558.94;5270371;28;20028;-65
2021/12/16 08:44:51;;;;;;;77.13;40.65;;;;;;;4.49;100.00;103563.31;5271415;28;20032;-65
2021/12/16 08:47:23;;;;;;;69.90;38.20;;;;;;;4.51;100.00;103566.81;5270879;28;20060;-65
2021/12/16 08:49:55;;;;;;;73.75;39.40;;;;;;;4.53;100.00;103555.38;5263526;28;20021;-65
2021/12/16 08:52:27;;;;;;;84.82;42.80;;;;;;;4.50;100.00;103562.41;5270185;28;20043;-64
2021/12/16 08:55:00;;;;;;;85.43;40.60;;;;;;;4.54;100.00;103573.84;5268869;28;20421;-65
2021/12/16 08:57:31;;;;;;;91.05;44.28;;;;;;;4.50;100.00;103574.75;5261458;28;20528;-65
2021/12/16 09:00:07;;;;;;;102.78;44.53;;;;;;;4.49;100.00;103573.03;5265686;28;20074;-65
2021/12/16 09:02:38;;;;;;;81.93;41.08;;;;;;;4.59;100.00;103594.97;5268929;28;20029;-65
2021/12/16 09:05:10;;;;;;;134.15;48.25;;;;;;;4.54;100.00;103588.84;5259571;28;20028;-65
2021/12/16 09:07:45;;;;;;;158.13;50.80;;;;;;;4.54;100.00;103591.47;5269726;28;20155;-64
2021/12/16 09:10:23;;;;;;;128.98;48.95;;;;;;;4.53;100.00;103598.53;5260243;28;20363;-65
2021/12/16 09:13:03;;;;;;;91.80;43.70;;;;;;;4.60;100.00;103602.91;5261548;28;20483;-65
2021/12/16 09:16:02;;;;;;;94.82;47.38;;;;;;;4.63;100.00;103588.78;5265039;28;20052;-65
2021/12/16 09:18:41;;;;;;;144.25;51.30;;;;;;;4.61;100.00;103586.13;5261923;28;20075;-65
2021/12/16 09:21:18;;;;;;;91.93;43.80;;;;;;;4.65;100.00;103597.56;5260513;28;20345;-64
2021/12/16 09:23:50;;;;;;;97.47;46.95;;;;;;;4.73;100.00;103598.38;5263235;28;20401;-65
2021/12/16 09:26:23;;;;;;;95.40;46.33;;;;;;;4.67;100.00;103599.31;5263929;28;20029;-65
2021/12/16 09:28:55;;;;;;;93.88;46.25;;;;;;;4.76;100.00;103595.72;5260706;28;21925;-65
2021/12/16 09:31:28;;;;;;;124.45;52.35;;;;;;;4.76;100.00;103592.22;5265571;28;20033;-65
2021/12/16 09:34:06;;;;;;;121.93;53.60;;;;;;;4.91;100.00;103611.47;5265810;28;20024;-65
2021/12/16 09:36:40;;;;;;;113.80;50.50;;;;;;;4.93;100.00;103600.88;5273140;28;20101;-65
2021/12/16 09:39:16;;;;;;;132.52;55.80;;;;;;;4.93;100.00;103600.88;5270311;28;20036;-65
2021/12/16 09:41:49;;;;;;;126.28;55.67;;;;;;;4.96;100.00;103599.97;5263770;28;20055;-65
2021/12/16 09:44:22;;;;;;;135.95;55.35;;;;;;;4.96;100.00;103614.06;5273049;28;20033;-65
2021/12/16 09:46:56;;;;;;;136.40;58.40;;;;;;;5.05;100.00;103603.41;5267039;28;20036;-65
2021/12/16 09:49:28;;;;;;;136.82;58.58;;;;;;;5.15;100.00;103604.22;5268328;28;20122;-65
2021/12/16 09:52:00;;;;;;;132.30;57.97;;;;;;;5.19;100.00;103605.94;5265995;28;20116;-65
2021/12/16 09:54:33;;;;;;;148.25;64.30;;;;;;;5.24;100.00;103604.13;5267341;28;20067;-64
2021/12/16 09:57:04;;;;;;;145.88;63.10;;;;;;;5.36;100.00;103604.91;5264322;28;20103;-63
2021/12/16 09:59:37;;;;;;;160.35;65.28;;;;;;;5.39;100.00;103599.56;5265556;28;20047;-64
2021/12/16 10:02:14;;;;;;;160.38;64.80;;;;;;;5.44;100.00;103605.69;5265225;28;20394;-64
2021/12/16 10:04:47;;;;;;;165.30;66.18;;;;;;;5.54;100.00;103601.16;5259915;28;20028;-64
2021/12/16 10:07:27;;;;;;;160.45;69.97;;;;;;;5.73;100.00;103613.31;5267845;28;20079;-64
2021/12/16 10:10:01;;;;;;;178.82;73.72;;;;;;;5.70;100.00;103608.06;5267797;28;20086;-65
2021/12/16 10:12:37;;;;;;;187.63;80.30;;;;;;;5.97;100.00;103603.38;5260615;28;20028;-65
2021/12/16 10:18:15;;;;;;;224.02;91.18;;;;;;;6.12;100.00;103612.88;5264834;28;20067;-64
2021/12/16 10:20:57;;;;;;;194.52;83.57;;;;;;;6.19;100.00;103601.28;5266439;28;20041;-65
2021/12/16 10:23:32;;;;;;;191.73;89.65;;;;;;;6.61;100.00;103609.53;5261766;28;20094;-64
2021/12/16 10:26:10;;;;;;;201.52;92.63;;;;;;;6.61;100.00;103609.53;5270036;28;20032;-64
2021/12/16 10:28:45;;;;;;;224.07;98.13;;;;;;;6.77;100.00;103602.19;5269577;28;20067;-64
2021/12/16 10:31:16;;;;;;;232.93;100.47;;;;;;;6.89;100.00;103604.66;5271642;28;20028;-65
2021/12/16 10:33:53;;;;;;;242.48;102.97;;;;;;;7.06;100.00;103604.38;5268022;28;20355;-65
2021/12/16 10:36:39;;;;;;;245.48;105.38;;;;;;;7.04;100.00;103609.72;5272240;28;20040;-65
2021/12/16 10:39:22;;;;;;;224.95;100.85;;;;;;;7.11;100.00;103607.81;5271198;28;20105;-65
2021/12/16 10:41:57;;;;;;;233.77;100.13;;;;;;;7.22;100.00;103600.53;5262410;28;20041;-65
2021/12/16 10:44:33;;;;;;;218.88;97.93;;;;;;;7.33;100.00;103600.34;5258340;28;20127;-65
2021/12/16 10:47:13;;;;;;;192.60;93.60;;;;;;;7.58;100.00;103600.75;5269340;28;20032;-65
2021/12/16 10:49:52;;;;;;;223.18;100.00;;;;;;;7.69;100.00;103602.31;5260893;28;20033;-65
2021/12/16 10:52:31;;;;;;;214.30;96.57;;;;;;;7.86;100.00;103610.81;5268039;28;20035;-65
2021/12/16 10:55:03;;;;;;;188.23;91.45;;;;;;;7.98;100.00;103607.94;5268527;28;20484;-65
2021/12/16 10:57:34;;;;;;;167.38;81.43;;;;;;;7.99;100.00;103607.00;5255532;28;20029;-65
2021/12/16 11:00:11;;;;;;;177.32;82.07;;;;;;;7.91;100.00;103600.97;5262341;28;20039;-65
2021/12/16 11:02:42;;;;;;;150.80;75.50;;;;;;;8.02;100.00;103600.78;5269241;28;20033;-65
2021/12/16 11:05:18;;;;;;;147.07;73.68;;;;;;;8.08;100.00;103605.94;5274402;28;20032;-65
2021/12/16 11:07:54;;;;;;;150.25;75.18;;;;;;;8.13;100.00;103608.50;5270176;28;20548;-65
2021/12/16 11:10:29;;;;;;;137.55;67.65;;;;;;;8.20;100.00;103610.97;5263198;28;20121;-65
2021/12/16 11:13:09;;;;;;;126.40;62.22;;;;;;;8.20;100.00;103616.31;5268355;28;20107;-65
2021/12/16 11:15:44;;;;;;;104.88;56.45;;;;;;;8.18;100.00;103609.28;5275839;28;20048;-65
2021/12/16 11:18:20;;;;;;;110.03;58.75;;;;;;;8.31;100.00;103610.75;5268274;28;20550;-65
2021/12/16 11:21:04;;;;;;;102.57;57.92;;;;;;;8.34;100.00;103616.03;5265961;28;20029;-65
2021/12/16 11:23:43;;;;;;;75.28;43.53;;;;;;;8.38;100.00;103624.78;5271421;28;20107;-64
2021/12/16 11:26:18;;;;;;;65.30;37.88;;;;;;;8.45;100.00;103618.47;5272269;28;20459;-65
2021/12/16 11:28:51;;;;;;;58.05;34.58;;;;;;;8.50;100.00;103619.22;5272879;28;20082;-65
2021/12/16 11:31:31;;;;;;;62.17;36.37;;;;;;;8.42;100.00;103616.75;5268802;28;20032;-65
2021/12/16 11:34:07;;;;;;;56.20;34.28;;;;;;;8.44;100.00;103617.59;5265445;28;20494;-65
2021/12/16 11:36:44;;;;;;;55.42;34.03;;;;;;;8.47;100.00;103613.09;5274999;28;20043;-65
2021/12/16 11:39:20;;;;;;;57.75;35.08;;;;;;;8.44;100.00;103614.06;5277589;28;20055;-64
2021/12/16 11:42:02;;;;;;;62.63;33.20;;;;;;;8.44;100.00;103619.38;5257008;28;20311;-64
2021/12/16 11:44:39;;;;;;;52.08;30.83;;;;;;;8.39;100.00;103615.91;5273316;28;20028;-64
2021/12/16 11:47:19;;;;;;;51.08;29.42;;;;;;;8.48;100.00;103610.41;5269214;28;20075;-65
2021/12/16 11:49:59;;;;;;;47.08;30.02;;;;;;;8.45;100.00;103607.81;5274349;28;20040;-65
2021/12/16 11:52:37;;;;;;;48.33;30.50;;;;;;;8.59;100.00;103612.81;5272780;28;20077;-65
2021/12/16 11:55:14;;;;;;;52.72;31.65;;;;;;;8.64;100.00;103608.25;5274939;28;20044;-64
2021/12/16 11:57:54;;;;;;;50.83;32.28;;;;;;;8.67;100.00;103616.19;5266403;28;20059;-64
2021/12/16 12:00:31;;;;;;;49.58;31.42;;;;;;;8.83;100.00;103606.91;5261908;28;20131;-64
2021/12/16 12:03:09;;;;;;;43.50;27.08;;;;;;;8.94;100.00;103605.78;5256732;28;20047;-65
2021/12/16 12:05:46;;;;;;;40.60;26.02;;;;;;;9.02;100.00;103609.09;5270698;28;20040;-64
2021/12/16 12:08:22;;;;;;;42.13;24.95;;;;;;;9.02;100.00;103595.78;5263862;28;20056;-64
2021/12/16 12:11:03;;;;;;;40.92;24.05;;;;;;;9.14;100.00;103603.44;5261711;28;20064;-65
2021/12/16 12:13:40;;;;;;;36.28;21.33;;;;;;;9.18;100.00;103602.44;5270256;28;20445;-64
2021/12/16 12:16:13;;;;;;;30.63;19.83;;;;;;;9.27;100.00;103605.81;5273451;28;20037;-64
2021/12/16 12:19:22;;;;;;;33.63;20.00;;;;;;;9.29;100.00;103598.66;5263004;28;20035;-64
2021/12/16 12:21:56;;;;;;;39.40;21.98;;;;;;;9.27;100.00;103597.81;5270265;28;20075;-65
2021/12/16 12:24:32;;;;;;;36.40;22.58;;;;;;;9.22;100.00;103608.56;5278890;28;20070;-65
2021/12/16 12:27:11;;;;;;;40.55;23.65;;;;;;;9.21;100.00;103607.72;5264618;28;20112;-65
2021/12/16 12:29:58;;;;;;;32.20;20.77;;;;;;;9.13;100.00;103607.03;5268375;28;20040;-65
2021/12/16 12:32:32;;;;;;;34.80;21.00;;;;;;;9.02;100.00;103601.97;5262107;28;20029;-65
2021/12/16 12:35:12;;;;;;;35.33;22.33;;;;;;;9.00;100.00;103601.16;5273798;28;20074;-65
2021/12/16 12:37:50;;;;;;;34.53;20.83;;;;;;;8.96;100.00;103593.28;5271670;28;20287;-64
2021/12/16 12:40:44;;;;;;;35.72;22.20;;;;;;;8.90;100.00;103599.66;5270991;28;20545;-64
2021/12/16 12:43:16;;;;;;;37.17;20.85;;;;;;;8.97;100.00;103592.34;5275493;28;20119;-64
2021/12/16 12:45:47;;;;;;;35.70;22.13;;;;;;;8.97;100.00;103600.34;5266215;28;20112;-64
2021/12/16 12:48:20;;;;;;;37.35;22.70;;;;;;;9.09;100.00;103599.16;5273189;28;20599;-64
2021/12/16 12:50:57;;;;;;;33.45;21.35;;;;;;;8.98;100.00;103594.13;5259358;28;20025;-64
2021/12/16 12:53:35;;;;;;;34.30;23.45;;;;;;;9.02;100.00;103598.44;5266671;28;20028;-65
2021/12/16 12:56:14;;;;;;;33.20;22.50;;;;;;;9.01;100.00;103596.69;5277906;28;20032;-65
2021/12/16 12:59:11;;;;;;;35.13;22.42;;;;;;;9.03;100.00;103597.53;5270029;28;20388;-65
2021/12/16 13:01:52;;;;;;;35.17;22.33;;;;;;;9.05;100.00;103590.41;5263022;28;20112;-65
2021/12/16 13:04:28;;;;;;;36.80;22.38;;;;;;;9.09;100.00;103583.16;5271942;28;20067;-64
2021/12/16 13:07:06;;;;;;;32.95;21.67;;;;;;;9.18;100.00;103588.25;5269738;28;20071;-64
2021/12/16 13:09:39;;;;;;;32.20;21.23;;;;;;;9.11;100.00;103576.00;5259220;28;20029;-64
2021/12/16 13:12:29;;;;;;;34.97;21.08;;;;;;;9.17;100.00;103582.06;5261982;28;20376;-64
2021/12/16 13:15:21;;;;;;;33.70;19.75;;;;;;;9.25;100.00;103581.00;5272628;28;20036;-64
2021/12/16 13:27:26;;;;;;;29.42;19.25;;;;;;;9.18;100.00;103586.47;5275208;28;20090;-64
2021/12/16 13:29:38;;;;;;;29.33;19.90;;;;;;;9.05;100.00;103589.50;5267586;28;20376;-64
2021/12/16 13:32:19;;;;;;;34.15;18.33;;;;;;;9.05;100.00;103584.16;5264590;28;20020;-64
2021/12/16 13:35:01;;;;;;;29.35;19.70;;;;;;;9.17;100.00;103586.53;5277299;28;20111;-64
2021/12/16 13:37:36;;;;;;;30.30;17.65;;;;;;;9.34;100.00;103586.94;5278834;28;20492;-64
2021/12/16 13:40:14;;;;;;;31.48;18.80;;;;;;;9.21;100.00;103590.84;5262226;28;20503;-64
2021/12/16 13:43:18;;;;;;;25.25;17.42;;;;;;;9.29;100.00;103595.97;5264606;28;20035;-64
2021/12/16 13:46:18;;;;;;;26.58;17.50;;;;;;;9.25;100.00;103597.84;5261126;28;20040;-64
2021/12/16 14:06:56;;;;;;;22.52;15.70;;;;;;;9.32;100.00;103598.53;5277265;28;20056;-64
2021/12/16 14:09:33;;;;;;;24.52;16.02;;;;;;;9.31;100.00;103602.13;5270126;28;20029;-65
2021/12/16 14:15:20;;;;;;;29.75;16.20;;;;;;;9.13;100.00;103600.84;5256751;28;20039;-64
2021/12/16 14:23:27;;;;;;;17.77;12.00;;;;;;;9.30;100.00;103609.28;5275482;28;20115;-64
2021/12/16 14:26:18;;;;;;;22.00;12.15;;;;;;;9.29;100.00;103603.97;5264288;28;20155;-65
2021/12/16 14:34:55;;;;;;;20.00;11.95;;;;;;;9.00;100.00;103617.13;5272843;28;20040;-65
2021/12/16 14:37:32;;;;;;;19.80;12.27;;;;;;;8.96;100.00;103617.25;5265304;28;20036;-65
2021/12/16 14:40:23;;;;;;;18.23;11.70;;;;;;;8.79;100.00;103613.22;5258168;28;20020;-65
2021/12/16 14:43:37;;;;;;;24.77;12.15;;;;;;;8.92;100.00;103619.13;5273087;28;20025;-65
2021/12/16 14:46:02;;;;;;;17.90;11.63;;;;;;;8.78;100.00;103624.78;5273154;28;20051;-65
2021/12/16 14:48:35;;;;;;;18.42;11.50;;;;;;;8.69;100.00;103629.47;5268611;28;20095;-65
2021/12/16 14:51:10;;;;;;;22.00;13.13;;;;;;;8.71;100.00;103636.50;5267212;28;20517;-65
2021/12/16 14:53:44;;;;;;;24.48;12.70;;;;;;;8.70;100.00;103636.50;5274028;28;20369;-65
2021/12/16 14:56:16;;;;;;;;;;;;;;;8.64;100.00;103626.88;5273219;28;20123;-65
2021/12/16 14:58:52;;;;;;;17.00;10.98;;;;;;;8.45;100.00;103626.44;5263633;28;19920;-65
2021/12/16 15:01:29;;;;;;;19.58;12.40;;;;;;;8.35;100.00;103625.75;5266519;28;20028;-65
2021/12/16 15:04:01;;;;;;;20.60;11.82;;;;;;;8.12;100.00;103630.69;5275044;28;20028;-65